createdAt,value
2023-04-10T13:09:21.080Z,85.90
2023-04-10T13:11:51.538Z,90.70
2023-04-10T13:14:19.899Z,86.30
2023-04-10T13:16:47.860Z,86.60
2023-04-10T13:19:15.816Z,85.70
2023-04-10T13:21:43.733Z,87.10
2023-04-10T13:24:11.769Z,87.00
2023-04-10T13:26:41.066Z,86.60
2023-04-10T13:29:09.040Z,85.00
2023-04-10T13:31:37.098Z,86.40
2023-04-10T13:34:05.094Z,83.80
2023-04-10T13:36:33.208Z,84.60
2023-04-10T13:39:01.911Z,87.90
2023-04-10T13:41:29.877Z,85.20
2023-04-10T13:43:59.187Z,82.90
2023-04-10T13:48:55.593Z,84.10
2023-04-10T13:51:23.865Z,83.90
2023-04-10T13:53:52.465Z,88.30
2023-04-10T13:56:20.356Z,86.90
2023-04-10T13:58:48.346Z,83.90
2023-04-10T14:01:17.749Z,85.60
2023-04-10T14:03:46.074Z,85.40
2023-04-10T14:06:14.778Z,87.30
2023-04-10T14:08:42.643Z,87.40
2023-04-10T14:11:10.639Z,86.10
2023-04-10T14:13:38.612Z,89.30
2023-04-10T14:16:07.929Z,88.00
2023-04-10T14:18:37.641Z,88.50
2023-04-10T14:21:05.887Z,88.30
2023-04-10T14:23:33.841Z,88.80
2023-04-10T14:26:01.801Z,88.80
2023-04-10T14:28:29.732Z,89.00
2023-04-10T14:30:57.655Z,88.80
2023-04-10T14:33:25.622Z,89.20
2023-04-10T14:35:55.595Z,88.70
2023-04-10T14:38:23.667Z,88.50
2023-04-10T14:40:52.295Z,89.80
2023-04-10T14:43:20.782Z,89.80
2023-04-10T14:45:48.716Z,89.20
2023-04-10T14:48:17.015Z,89.60
2023-04-10T14:50:45.013Z,90.20
2023-04-10T14:53:14.392Z,91.30
2023-04-10T14:55:42.399Z,90.30
2023-04-10T14:58:11.295Z,90.60
2023-04-10T15:00:39.251Z,90.60
2023-04-10T15:03:08.598Z,90.60
2023-04-10T15:05:36.907Z,90.70
2023-04-10T15:08:05.122Z,90.20
2023-04-10T15:10:34.394Z,91.00
2023-04-10T15:13:02.299Z,90.80
2023-04-10T15:15:30.291Z,91.10
2023-04-10T15:17:58.309Z,91.50
2023-04-10T15:20:26.389Z,90.00
2023-04-10T15:22:54.353Z,90.30
2023-04-10T15:25:22.296Z,90.30
2023-04-10T15:27:51.792Z,91.50
2023-04-10T15:30:19.818Z,90.70
2023-04-10T15:32:47.820Z,90.60
2023-04-10T15:35:16.028Z,90.50
2023-04-10T15:37:44.435Z,90.80
2023-04-10T15:40:12.735Z,90.50
2023-04-10T15:42:40.751Z,91.10
2023-04-10T15:45:10.275Z,91.60
2023-04-10T15:47:38.350Z,91.00
2023-04-10T15:50:10.270Z,91.30
2023-04-10T15:52:39.027Z,91.20
2023-04-10T15:55:07.825Z,91.60
2023-04-10T15:57:36.081Z,90.80
2023-04-10T16:00:04.415Z,90.90
2023-04-10T16:02:33.860Z,91.00
2023-04-10T16:05:02.144Z,90.90
2023-04-10T16:07:30.273Z,91.50
2023-04-10T16:09:58.394Z,91.40
2023-04-10T16:12:26.499Z,91.30
2023-04-10T16:14:54.491Z,91.70
2023-04-10T16:17:23.000Z,91.70
2023-04-10T16:19:52.450Z,91.70
2023-04-10T16:22:20.393Z,91.40
2023-04-10T16:24:48.842Z,91.00
2023-04-10T16:27:16.846Z,91.10
2023-04-10T16:29:45.234Z,91.50
2023-04-10T16:32:13.250Z,91.30
2023-04-10T16:34:41.251Z,91.40
2023-04-10T16:37:10.631Z,91.50
2023-04-10T16:39:38.576Z,91.90
2023-04-10T16:42:06.683Z,92.10
2023-04-10T16:44:34.614Z,92.00
2023-04-10T16:47:02.893Z,92.70
2023-04-10T16:49:31.489Z,92.40
2023-04-10T16:51:59.547Z,92.70
2023-04-10T16:54:28.894Z,92.50
2023-04-10T16:56:57.008Z,92.30
2023-04-10T16:59:25.198Z,92.70
2023-04-10T17:01:53.235Z,92.20
2023-04-10T17:04:21.337Z,92.00
2023-04-10T17:06:49.371Z,91.90
2023-04-10T17:09:18.246Z,92.50
2023-04-10T17:11:48.339Z,92.20
2023-04-10T17:14:16.324Z,93.30
2023-04-10T17:16:45.900Z,92.40
2023-04-10T17:19:13.975Z,92.50
2023-04-10T17:21:42.106Z,93.20
2023-04-10T17:24:10.165Z,93.10
2023-04-10T17:26:38.221Z,92.70
2023-04-10T17:29:07.619Z,92.30
2023-04-10T17:31:35.754Z,92.40
2023-04-10T17:34:03.993Z,92.30
2023-04-10T17:36:32.651Z,93.00
2023-04-10T17:39:00.951Z,92.60
2023-04-10T17:41:29.143Z,92.40
2023-04-10T17:43:57.072Z,92.20
2023-04-10T17:46:26.403Z,92.00
2023-04-10T17:48:59.966Z,92.20
2023-04-10T17:51:28.646Z,92.90
2023-04-10T17:53:56.679Z,92.50
2023-04-10T17:56:24.635Z,92.40
2023-04-10T17:58:54.445Z,92.50
2023-04-10T18:01:23.431Z,92.70
2023-04-10T18:03:53.176Z,93.00
2023-04-10T18:06:21.487Z,92.70
2023-04-10T18:08:50.082Z,92.90
2023-04-10T18:11:18.244Z,92.70
2023-04-10T18:13:47.450Z,92.60
2023-04-10T18:16:15.691Z,92.40
2023-04-10T18:18:43.735Z,92.50
2023-04-10T18:21:13.539Z,92.70
2023-04-10T18:23:42.066Z,93.00
2023-04-10T18:26:10.122Z,92.50
2023-04-10T18:28:38.735Z,92.70
2023-04-10T18:31:08.439Z,92.60
2023-04-10T18:33:36.499Z,92.10
2023-04-10T18:36:04.681Z,92.40
2023-04-10T18:38:34.974Z,91.90
2023-04-10T18:41:03.041Z,92.30
2023-04-10T18:43:31.084Z,92.00
2023-04-10T18:45:59.190Z,91.80
2023-04-10T18:48:27.280Z,92.10
2023-04-10T18:50:55.368Z,92.90
2023-04-10T18:53:23.453Z,92.80
2023-04-10T18:55:53.913Z,92.90
2023-04-10T18:58:23.002Z,93.10
2023-04-10T19:00:51.010Z,93.50
2023-04-10T19:03:19.165Z,93.80
2023-04-10T19:05:47.889Z,94.00
2023-04-10T19:08:17.147Z,94.20
2023-04-10T19:10:45.084Z,94.30
2023-04-10T19:13:14.398Z,94.70
2023-04-10T19:15:43.154Z,94.90
2023-04-10T19:18:13.113Z,94.60
2023-04-10T19:20:48.904Z,94.80
2023-04-10T19:23:20.537Z,94.90
2023-04-10T19:25:51.984Z,95.20
2023-04-10T19:28:21.357Z,95.40
2023-04-10T19:30:49.363Z,95.50
2023-04-10T19:33:17.429Z,95.80
2023-04-10T19:35:45.593Z,95.90
2023-04-10T19:38:13.598Z,95.70
2023-04-10T19:40:41.566Z,96.30
2023-04-10T19:43:09.566Z,96.50
2023-04-10T19:45:39.167Z,97.10
2023-04-10T19:48:07.978Z,97.10
2023-04-10T19:50:36.059Z,97.40
2023-04-10T19:53:04.020Z,97.50
2023-04-10T19:55:32.305Z,97.90
2023-04-10T19:58:00.326Z,98.60
2023-04-10T20:00:28.266Z,98.40
2023-04-10T20:02:58.043Z,98.50
2023-04-10T20:05:26.406Z,98.70
2023-04-10T20:07:54.348Z,99.50
2023-04-10T20:10:22.517Z,99.20
2023-04-10T20:12:50.469Z,99.90
2023-04-10T20:15:20.423Z,99.90
2023-04-10T20:17:48.499Z,99.90
2023-04-10T20:20:17.936Z,99.90
2023-04-10T20:22:45.964Z,99.90
2023-04-10T20:25:13.887Z,99.90
2023-04-10T20:27:41.851Z,99.90
2023-04-10T20:30:11.122Z,99.90
2023-04-10T20:32:39.153Z,99.90
2023-04-10T20:35:08.329Z,99.90
2023-04-10T20:37:37.605Z,99.90
2023-04-10T20:40:06.497Z,99.90
2023-04-10T20:42:34.476Z,99.90
2023-04-10T20:45:02.498Z,99.90
2023-04-10T20:47:30.677Z,99.90
2023-04-10T20:49:58.679Z,99.90
2023-04-10T20:52:26.795Z,99.90
2023-04-10T20:54:56.128Z,99.90
2023-04-10T20:57:24.154Z,99.90
2023-04-10T20:59:52.149Z,99.90
2023-04-10T21:02:20.228Z,99.90
2023-04-10T21:04:48.274Z,99.90
2023-04-10T21:07:16.199Z,99.90
2023-04-10T21:09:44.133Z,99.90
2023-04-10T21:12:13.400Z,99.90
2023-04-10T21:14:41.331Z,99.90
2023-04-10T21:17:09.315Z,99.90
2023-04-10T21:19:37.493Z,99.90
2023-04-10T21:22:05.466Z,99.90
2023-04-10T21:24:33.490Z,99.90
2023-04-10T21:27:01.456Z,99.90
2023-04-10T21:29:30.979Z,99.90
2023-04-10T21:31:58.982Z,99.90
2023-04-10T21:34:27.015Z,99.90
2023-04-10T21:36:55.582Z,99.90
2023-04-10T21:39:23.503Z,99.90
2023-04-10T21:41:51.552Z,99.90
2023-04-10T21:44:19.521Z,99.90
2023-04-10T21:46:48.946Z,99.90
2023-04-10T21:49:16.891Z,99.90
2023-04-10T21:51:44.894Z,99.90
2023-04-10T21:54:12.878Z,99.90
2023-04-10T21:56:41.340Z,99.90
2023-04-10T21:59:09.322Z,99.80
2023-04-10T22:01:37.460Z,99.30
2023-04-10T22:04:07.017Z,98.90
2023-04-10T22:06:35.302Z,98.60
2023-04-10T22:09:03.204Z,98.30
2023-04-10T22:11:31.700Z,98.20
2023-04-10T22:14:02.960Z,98.10
2023-04-10T22:16:41.068Z,97.80
2023-04-10T22:19:10.533Z,98.00
2023-04-10T22:21:38.498Z,98.00
2023-04-10T22:24:06.776Z,98.30
2023-04-10T22:26:35.212Z,99.40
2023-04-10T22:29:04.962Z,99.60
2023-04-10T22:31:32.988Z,99.90
2023-04-10T22:34:00.952Z,99.90
2023-04-10T22:36:34.333Z,99.90
2023-04-10T22:39:02.474Z,99.90
2023-04-10T22:41:31.272Z,99.90
2023-04-10T22:43:59.290Z,99.90
2023-04-10T22:46:27.237Z,99.90
2023-04-10T22:48:55.764Z,99.90
2023-04-10T22:51:23.890Z,99.90
2023-04-10T22:53:53.305Z,99.90
2023-04-10T22:56:24.960Z,99.90
2023-04-10T22:58:53.408Z,99.90
2023-04-10T23:01:21.764Z,99.90
2023-04-10T23:03:53.808Z,99.90
2023-04-10T23:06:22.028Z,99.90
2023-04-10T23:08:49.983Z,99.90
2023-04-10T23:11:19.308Z,99.90
2023-04-10T23:13:47.296Z,99.90
2023-04-10T23:16:15.318Z,99.90
2023-04-10T23:18:43.271Z,99.90
2023-04-10T23:21:11.203Z,99.90
2023-04-10T23:23:39.220Z,99.90
2023-04-10T23:26:07.766Z,99.90
2023-04-10T23:28:37.032Z,99.90
2023-04-10T23:31:05.075Z,99.90
2023-04-10T23:33:33.083Z,99.90
2023-04-10T23:36:01.095Z,99.90
2023-04-10T23:38:29.026Z,99.90
2023-04-10T23:40:57.198Z,99.90
2023-04-10T23:43:25.216Z,99.90
2023-04-10T23:45:54.543Z,99.90
2023-04-10T23:48:22.503Z,99.90
2023-04-10T23:50:50.523Z,99.90
2023-04-10T23:53:18.486Z,99.90
2023-04-10T23:55:46.525Z,99.90
2023-04-10T23:58:14.574Z,99.90
